Carl Junction, Missouri
Current Conditions -  °F | °C
As of 11:53 AM on Monday 26 Jan 2015 (Local Time) from KJLN Reporting Station
Clear Clear  
Wind Chill: 42°   Ceiling: Unl
Heat Index: 49°   Visibility: 10mi
Dew Point: 32°   Wind: 18mph
Humidity: 52%   Direction: 230°SW
Pressure: 30.02"   Gusts: 28mph
Location:  37.18°N, 94.57°W
Report Text: KJLN 261753Z 23016G24KT 10SM CLR 09/00 A3002 RMK AO2 PRESFR SLP168 I6000 T00940000 10094 21044 58023
Loading
Personal Weather Stations






























Interactive Weather Map New forecast layout! Learn more

10-Day Weather Forecast

Advertisements
Track Severe Weather on mobile